Time;durP1;ratioP1;P1;durP2;ratioP2;P2;SDS_P1;SDS_P2;PMS_P1;PMS_P2;Temp;Humidity;BMP_temperature;BMP_pressure;BME280_temperature;BME280_humidity;BME280_pressure;Samples;Min_cycle;Max_cycle;Signal;HPM_P1;HPM_P2
2023/07/21 00:02:21;;;;;;;7.60;6.43;;;;;;;15.65;69.71;101164.56;5011494;28;20025;-78
2023/07/21 00:04:46;;;;;;;7.85;6.93;;;;;;;15.51;70.00;101157.31;5016929;28;20064;-78
2023/07/21 00:07:12;;;;;;;8.07;7.25;;;;;;;15.45;70.46;101166.50;5010358;28;20485;-78
2023/07/21 00:09:37;;;;;;;7.50;6.80;;;;;;;15.42;70.04;101158.66;5009832;28;20029;-79
2023/07/21 00:12:03;;;;;;;8.68;6.93;;;;;;;15.34;70.63;101157.38;5020736;28;20025;-78
2023/07/21 00:14:29;;;;;;;6.97;6.28;;;;;;;15.26;70.41;101163.13;5027388;28;20447;-78
2023/07/21 00:16:55;;;;;;;7.55;6.85;;;;;;;15.02;71.32;101160.00;5023758;28;20022;-78
2023/07/21 00:19:20;;;;;;;8.57;6.75;;;;;;;14.85;71.55;101160.03;5033235;28;20034;-78
2023/07/21 00:21:46;;;;;;;9.43;7.00;;;;;;;14.63;72.54;101155.81;5028775;28;20473;-78
2023/07/21 00:24:11;;;;;;;10.50;7.07;;;;;;;14.60;72.46;101156.00;5027007;28;20423;-78
2023/07/21 00:26:36;;;;;;;8.43;7.60;;;;;;;14.49;73.14;101159.19;5027030;28;20025;-78
2023/07/21 00:29:02;;;;;;;9.95;7.40;;;;;;;14.49;72.89;101153.88;5027861;28;20029;-78
2023/07/21 00:31:27;;;;;;;7.97;7.20;;;;;;;14.40;73.53;101156.97;5032336;28;20024;-78
2023/07/21 00:33:54;;;;;;;8.07;7.20;;;;;;;14.47;72.81;101146.88;5022430;28;20056;-78
2023/07/21 00:36:20;;;;;;;8.38;6.70;;;;;;;14.52;72.71;101150.19;5033957;28;20131;-78
2023/07/21 00:38:47;;;;;;;7.30;6.60;;;;;;;14.65;71.12;101151.28;5016507;28;20113;-78
2023/07/21 00:41:13;;;;;;;9.43;6.47;;;;;;;14.77;71.04;101150.63;5020375;28;20658;-78
2023/07/21 00:43:38;;;;;;;7.20;6.50;;;;;;;14.87;71.22;101150.13;5010054;28;20037;-78
2023/07/21 00:46:04;;;;;;;8.52;7.25;;;;;;;14.89;71.07;101146.47;5013371;28;20067;-78
2023/07/21 00:48:29;;;;;;;7.88;7.18;;;;;;;14.95;71.27;101137.28;5018780;28;20766;-78
2023/07/21 00:50:55;;;;;;;7.32;6.63;;;;;;;15.04;70.67;101136.78;5017717;28;20029;-78
2023/07/21 00:53:20;;;;;;;8.65;6.32;;;;;;;15.11;69.31;101135.53;5017537;28;20056;-78
2023/07/21 00:55:47;;;;;;;7.75;7.15;;;;;;;15.11;70.55;101137.31;5016418;28;22295;-78
2023/07/21 00:58:13;;;;;;;7.55;6.85;;;;;;;15.01;70.05;101121.88;5015555;28;20048;-78
2023/07/21 01:00:40;;;;;;;7.53;6.82;;;;;;;15.05;70.33;101128.72;5017906;28;20037;-78
2023/07/21 01:03:08;;;;;;;7.57;6.88;;;;;;;15.06;70.59;101126.91;5012669;28;20132;-78
2023/07/21 01:05:36;;;;;;;7.40;6.60;;;;;;;14.98;70.59;101130.00;5015408;28;20031;-78
2023/07/21 01:08:07;;;;;;;7.35;6.65;;;;;;;15.02;70.56;101130.72;5017006;28;20017;-78
2023/07/21 01:10:34;;;;;;;7.40;6.70;;;;;;;14.97;70.98;101125.63;5015993;28;20021;-78
2023/07/21 01:13:00;;;;;;;8.30;7.50;;;;;;;14.73;71.59;101121.59;5019082;28;20045;-78
2023/07/21 01:15:27;;;;;;;8.23;7.32;;;;;;;14.52;72.68;101118.28;5015729;28;20029;-78
2023/07/21 01:17:54;;;;;;;7.60;6.90;;;;;;;14.52;72.21;101111.16;5017952;28;20458;-78
2023/07/21 01:20:22;;;;;;;7.45;6.75;;;;;;;14.54;72.39;101119.03;5024784;28;20030;-78
2023/07/21 01:22:55;;;;;;;8.10;7.22;;;;;;;14.66;71.62;101117.56;5021309;28;20397;-78
2023/07/21 01:25:21;;;;;;;6.97;6.38;;;;;;;14.80;70.98;101107.88;5032778;28;20025;-78
2023/07/21 01:27:49;;;;;;;7.45;6.70;;;;;;;14.84;69.80;101108.59;5027452;28;20037;-78
2023/07/21 01:30:18;;;;;;;8.95;7.30;;;;;;;14.87;70.25;101110.22;5037049;28;20035;-78
2023/07/21 01:32:45;;;;;;;8.15;7.43;;;;;;;14.89;71.34;101108.34;5035359;28;20057;-78
2023/07/21 01:35:15;;;;;;;8.63;7.82;;;;;;;14.82;71.23;101102.47;5018250;28;20499;-78
2023/07/21 01:37:43;;;;;;;8.27;7.45;;;;;;;14.80;70.95;101099.91;5018162;28;20508;-78
2023/07/21 01:40:11;;;;;;;10.55;7.88;;;;;;;14.79;71.10;101098.19;5016272;28;20029;-78
2023/07/21 01:42:37;;;;;;;9.27;8.38;;;;;;;14.72;72.39;101093.25;5017782;28;20397;-78
2023/07/21 01:45:03;;;;;;;9.15;7.72;;;;;;;14.53;72.89;101096.91;5015111;28;20037;-78
2023/07/21 01:47:37;;;;;;;9.10;7.38;;;;;;;14.54;72.19;101092.44;5015469;28;20372;-78
2023/07/21 01:50:06;;;;;;;8.48;7.57;;;;;;;14.41;71.91;101099.28;5018708;28;20049;-78
2023/07/21 01:52:34;;;;;;;8.02;7.22;;;;;;;14.29;72.73;101100.81;5016606;28;20038;-78
2023/07/21 01:55:18;;;;;;;10.07;7.85;;;;;;;14.20;72.72;101093.31;5017281;28;20029;-78
2023/07/21 01:57:48;;;;;;;11.73;8.30;;;;;;;13.92;74.10;101092.03;5010272;28;20032;-78
2023/07/21 02:00:15;;;;;;;8.73;7.85;;;;;;;14.04;73.92;101087.91;5016666;28;20025;-78
2023/07/21 02:02:42;;;;;;;7.82;7.03;;;;;;;14.12;73.57;101088.34;5017475;28;20082;-78
2023/07/21 02:05:27;;;;;;;8.18;7.35;;;;;;;14.33;72.29;101082.91;5015011;28;20021;-78
2023/07/21 02:07:53;;;;;;;8.82;7.47;;;;;;;14.29;72.73;101084.84;5015649;28;20453;-78
2023/07/21 02:10:19;;;;;;;8.45;7.53;;;;;;;14.29;72.35;101080.38;5017770;28;20032;-78
2023/07/21 02:12:44;;;;;;;8.70;7.82;;;;;;;14.30;72.16;101082.09;5029839;28;20436;-78
2023/07/21 02:15:10;;;;;;;14.93;7.35;;;;;;;14.36;72.37;101080.06;5023098;28;20476;-78
2023/07/21 02:17:36;;;;;;;9.48;8.18;;;;;;;14.34;72.68;101079.28;5030184;28;20481;-78
2023/07/21 02:20:08;;;;;;;10.65;8.02;;;;;;;14.39;71.62;101077.25;5021722;28;20118;-78
2023/07/21 02:22:34;;;;;;;9.07;8.13;;;;;;;14.40;71.95;101070.97;5026429;28;20021;-78
2023/07/21 02:24:59;;;;;;;8.32;7.53;;;;;;;14.38;72.19;101078.19;5025244;28;20112;-78
2023/07/21 02:27:26;;;;;;;9.55;7.45;;;;;;;14.29;71.97;101072.41;5028443;28;20243;-78
2023/07/21 02:29:51;;;;;;;9.95;7.80;;;;;;;14.17;72.89;101067.72;5024814;28;20022;-78
2023/07/21 02:32:16;;;;;;;9.85;8.35;;;;;;;14.00;73.00;101075.72;5019520;28;20029;-78
2023/07/21 02:34:42;;;;;;;8.45;7.57;;;;;;;13.93;72.85;101076.94;5030462;28;20044;-78
2023/07/21 02:37:07;;;;;;;7.70;7.00;;;;;;;13.94;72.73;101076.00;5036119;28;20587;-78
2023/07/21 02:39:33;;;;;;;8.70;7.90;;;;;;;13.79;73.19;101067.00;5023912;28;20056;-78
2023/07/21 02:42:01;;;;;;;9.15;8.25;;;;;;;13.76;73.71;101072.50;5012659;28;20092;-78
2023/07/21 02:44:27;;;;;;;8.00;7.20;;;;;;;13.82;73.07;101076.63;5011101;28;20060;-78
2023/07/21 02:46:53;;;;;;;12.38;8.15;;;;;;;13.81;73.15;101065.16;5013785;28;20461;-78
2023/07/21 02:49:18;;;;;;;10.15;9.13;;;;;;;13.76;73.55;101068.03;5013713;28;20415;-78
2023/07/21 02:51:43;;;;;;;11.32;8.90;;;;;;;13.67;73.24;101059.66;5017893;28;20045;-78
2023/07/21 02:54:09;;;;;;;9.70;8.70;;;;;;;13.60;74.19;101064.41;5011646;28;20036;-78
2023/07/21 02:56:34;;;;;;;10.50;8.00;;;;;;;13.55;74.27;101062.91;5015514;28;20022;-78
2023/07/21 02:59:01;;;;;;;9.38;8.25;;;;;;;13.46;74.48;101061.56;5011325;28;20029;-78
2023/07/21 03:01:27;;;;;;;8.68;7.70;;;;;;;13.50;74.24;101060.47;5014185;28;20029;-78
2023/07/21 03:03:55;;;;;;;8.02;7.32;;;;;;;13.59;74.05;101060.03;5024636;28;20412;-78
2023/07/21 03:06:20;;;;;;;9.10;8.30;;;;;;;13.64;74.46;101058.00;5015874;28;20541;-78
2023/07/21 03:08:46;;;;;;;12.07;8.20;;;;;;;13.68;74.01;101064.03;5012485;28;20078;-78
2023/07/21 03:11:13;;;;;;;10.23;8.45;;;;;;;13.71;73.67;101056.78;5017824;28;20040;-78
2023/07/21 03:13:43;;;;;;;8.82;7.90;;;;;;;13.74;73.46;101058.41;5014578;28;20394;-78
2023/07/21 03:16:08;;;;;;;9.07;8.18;;;;;;;13.76;72.68;101057.41;5013901;28;20607;-78
2023/07/21 03:18:34;;;;;;;7.63;6.93;;;;;;;13.70;73.28;101062.16;5012820;28;21623;-78
2023/07/21 03:20:59;;;;;;;8.38;7.05;;;;;;;13.63;73.55;101061.59;5014513;28;20092;-78
2023/07/21 03:23:25;;;;;;;7.32;6.63;;;;;;;13.65;73.33;101062.38;5012018;28;20033;-78
2023/07/21 03:25:50;;;;;;;8.75;7.90;;;;;;;13.70;73.50;101063.00;5012168;28;20060;-78
2023/07/21 03:28:16;;;;;;;8.77;7.75;;;;;;;13.75;73.09;101054.81;5012916;28;20025;-78
2023/07/21 03:30:41;;;;;;;8.60;7.80;;;;;;;13.88;72.68;101068.34;5012551;28;20045;-78
2023/07/21 03:33:06;;;;;;;7.97;7.13;;;;;;;13.85;71.16;101068.47;5014379;28;20036;-78
2023/07/21 03:35:32;;;;;;;7.40;6.70;;;;;;;13.79;71.64;101061.69;5027711;28;20025;-78
2023/07/21 03:37:58;;;;;;;9.63;7.80;;;;;;;13.66;73.16;101061.47;5012833;28;20404;-78
2023/07/21 03:40:24;;;;;;;9.98;8.93;;;;;;;13.38;74.30;101063.72;5017824;28;20038;-78
2023/07/21 03:42:49;;;;;;;11.73;8.80;;;;;;;13.19;74.79;101064.56;5010861;28;20045;-78
2023/07/21 03:45:14;;;;;;;9.65;8.65;;;;;;;13.09;74.97;101068.59;5015708;28;20447;-78
2023/07/21 03:47:40;;;;;;;8.90;7.90;;;;;;;13.08;74.47;101066.00;5014511;28;20034;-78
2023/07/21 03:50:08;;;;;;;9.63;7.15;;;;;;;13.13;74.06;101067.50;5018516;28;20045;-78
2023/07/21 03:52:33;;;;;;;7.43;6.72;;;;;;;13.22;74.70;101072.44;5017172;28;20037;-78
2023/07/21 03:54:58;;;;;;;7.20;6.57;;;;;;;13.18;75.00;101065.50;5012395;28;20025;-78
2023/07/21 03:57:24;;;;;;;7.40;6.05;;;;;;;13.22;74.23;101067.13;5014719;28;20939;-78
2023/07/21 03:59:50;;;;;;;7.82;6.68;;;;;;;13.22;74.95;101068.91;5009504;28;20036;-78
2023/07/21 04:02:18;;;;;;;9.50;7.57;;;;;;;13.25;74.42;101063.47;5012286;28;20040;-78
2023/07/21 04:04:45;;;;;;;8.10;6.50;;;;;;;13.22;74.89;101066.25;5015414;28;20574;-78
2023/07/21 04:07:13;;;;;;;10.20;8.88;;;;;;;13.13;75.78;101067.50;5012022;28;20823;-78
2023/07/21 04:09:39;;;;;;;11.43;9.50;;;;;;;13.09;76.60;101063.28;5019090;28;20056;-78
2023/07/21 04:12:06;;;;;;;10.88;8.82;;;;;;;12.94;76.08;101064.00;5019617;28;20452;-78
2023/07/21 04:14:31;;;;;;;11.35;9.35;;;;;;;12.89;76.53;101055.41;5025700;28;20443;-78
2023/07/21 04:16:56;;;;;;;9.68;8.68;;;;;;;12.89;76.95;101050.09;5021873;28;20034;-78
2023/07/21 04:19:21;;;;;;;11.15;9.15;;;;;;;12.83;76.95;101048.59;5018687;28;20036;-78
2023/07/21 04:21:47;;;;;;;12.65;9.02;;;;;;;12.87;76.60;101047.53;5022636;28;20080;-78
2023/07/21 04:24:13;;;;;;;10.40;8.02;;;;;;;12.87;76.67;101038.66;5023526;28;20404;-78
2023/07/21 04:26:39;;;;;;;9.63;8.60;;;;;;;12.86;76.83;101042.25;5026915;28;20076;-78
2023/07/21 04:29:04;;;;;;;9.13;8.20;;;;;;;13.00;76.07;101040.69;5013959;28;20029;-78
2023/07/21 04:31:29;;;;;;;14.50;10.25;;;;;;;13.09;76.70;101036.72;5022577;28;20025;-78
2023/07/21 04:33:58;;;;;;;11.35;9.32;;;;;;;13.07;76.78;101037.75;5033537;28;20091;-78
2023/07/21 04:36:24;;;;;;;9.50;8.52;;;;;;;13.12;75.98;101039.25;5027406;28;20038;-78
2023/07/21 04:38:49;;;;;;;9.18;8.27;;;;;;;13.24;75.86;101036.06;5019460;28;20033;-78
2023/07/21 04:41:14;;;;;;;12.73;8.95;;;;;;;13.23;76.37;101036.97;5033432;28;20116;-78
2023/07/21 04:43:40;;;;;;;11.05;8.98;;;;;;;13.27;76.33;101029.72;5024470;28;20094;-78
2023/07/21 04:46:05;;;;;;;10.20;8.85;;;;;;;13.26;76.47;101041.28;5020696;28;20021;-78
2023/07/21 04:48:30;;;;;;;10.88;8.45;;;;;;;13.27;75.91;101035.88;5023725;28;20048;-78
2023/07/21 04:50:56;;;;;;;11.30;8.05;;;;;;;13.34;75.71;101040.94;5025212;28;20388;-78
2023/07/21 04:53:22;;;;;;;11.07;8.10;;;;;;;13.31;77.07;101033.97;5029056;28;20384;-78
2023/07/21 04:55:48;;;;;;;10.85;8.93;;;;;;;13.37;76.23;101032.78;5021494;28;20031;-78
2023/07/21 04:58:14;;;;;;;12.65;8.68;;;;;;;13.47;76.98;101029.59;5018698;28;20025;-78
2023/07/21 05:00:39;;;;;;;10.07;7.65;;;;;;;13.62;75.37;101030.66;5027192;28;20022;-78
2023/07/21 05:03:04;;;;;;;10.23;8.80;;;;;;;13.83;75.88;101031.38;5014683;28;20022;-78
2023/07/21 05:05:32;;;;;;;10.15;8.75;;;;;;;13.90;75.81;101024.81;5029625;28;20065;-78
2023/07/21 05:07:59;;;;;;;10.30;9.02;;;;;;;14.01;74.66;101032.22;5017012;28;20062;-78
2023/07/21 05:10:25;;;;;;;10.35;8.73;;;;;;;14.09;75.64;101027.38;5020801;28;20053;-78
2023/07/21 05:12:50;;;;;;;10.50;9.00;;;;;;;14.23;74.87;101030.19;5023388;28;20070;-78
2023/07/21 05:15:16;;;;;;;10.95;8.50;;;;;;;14.40;74.88;101031.09;5030223;28;20472;-78
2023/07/21 05:17:41;;;;;;;10.43;9.32;;;;;;;14.54;74.83;101028.56;5025016;28;20033;-78
2023/07/21 05:20:07;;;;;;;11.05;9.30;;;;;;;14.65;74.82;101025.38;5024603;28;20029;-78
2023/07/21 05:22:33;;;;;;;14.23;9.90;;;;;;;14.80;74.75;101029.84;5027080;28;20060;-78
2023/07/21 05:24:58;;;;;;;11.45;10.23;;;;;;;14.89;74.20;101025.81;5020206;28;20492;-78
2023/07/21 05:27:23;;;;;;;13.07;11.60;;;;;;;15.01;74.19;101033.09;5017946;28;20112;-78
2023/07/21 05:29:49;;;;;;;15.10;12.07;;;;;;;15.13;74.11;101027.09;5015015;28;20377;-78
2023/07/21 05:32:15;;;;;;;16.48;12.07;;;;;;;15.24;74.37;101027.34;5024398;28;20024;-78
2023/07/21 05:34:41;;;;;;;18.00;13.60;;;;;;;15.34;74.09;101026.81;5026411;28;20052;-78
2023/07/21 05:37:07;;;;;;;22.13;15.38;;;;;;;15.41;73.71;101034.41;5029725;28;20037;-78
2023/07/21 05:39:32;;;;;;;15.60;13.77;;;;;;;15.47;72.80;101035.84;5034646;28;20040;-78
2023/07/21 05:41:58;;;;;;;17.23;14.80;;;;;;;15.59;72.84;101036.97;5048861;28;20033;-78
2023/07/21 05:44:24;;;;;;;20.67;15.77;;;;;;;15.65;72.60;101034.81;5037166;28;20071;-78
2023/07/21 05:46:50;;;;;;;20.52;16.55;;;;;;;15.81;72.73;101043.66;5027453;28;20116;-78
2023/07/21 05:49:16;;;;;;;20.52;14.88;;;;;;;15.93;71.99;101034.03;5029326;28;20119;-78
2023/07/21 05:51:42;;;;;;;22.02;14.32;;;;;;;15.95;71.84;101032.16;5027297;28;20433;-78
2023/07/21 05:54:08;;;;;;;20.17;15.30;;;;;;;16.02;72.62;101036.16;5026297;28;20056;-78
2023/07/21 05:56:33;;;;;;;20.88;16.55;;;;;;;16.00;72.87;101029.22;5022940;28;20030;-78
2023/07/21 05:58:59;;;;;;;17.65;15.70;;;;;;;16.07;73.30;101027.88;5020897;28;20025;-78
2023/07/21 06:01:24;;;;;;;18.83;15.73;;;;;;;16.12;73.39;101031.13;5033597;28;20049;-78
2023/07/21 06:03:49;;;;;;;20.65;16.38;;;;;;;16.11;73.29;101032.09;5027817;28;20139;-78
2023/07/21 06:06:15;;;;;;;19.50;14.90;;;;;;;16.12;73.70;101036.47;5024321;28;20460;-78
2023/07/21 06:08:40;;;;;;;19.23;15.27;;;;;;;16.11;73.54;101041.91;5022771;28;20497;-78
2023/07/21 06:11:06;;;;;;;19.88;15.90;;;;;;;16.22;73.66;101039.44;5024115;28;20033;-78
2023/07/21 06:13:31;;;;;;;17.60;14.55;;;;;;;16.37;72.74;101041.19;5032201;28;20065;-78
2023/07/21 06:15:56;;;;;;;20.90;15.30;;;;;;;16.51;73.38;101048.34;5034975;28;20408;-78
2023/07/21 06:18:22;;;;;;;16.65;14.95;;;;;;;16.61;71.82;101036.16;5039631;28;20125;-78
2023/07/21 06:20:52;;;;;;;21.45;15.80;;;;;;;16.75;71.41;101041.53;5018094;28;20080;-78
2023/07/21 06:23:17;;;;;;;17.77;14.57;;;;;;;16.88;70.67;101046.06;5027655;28;20056;-78
2023/07/21 06:25:44;;;;;;;18.00;14.93;;;;;;;16.89;71.01;101045.13;5033122;28;20135;-78
2023/07/21 06:28:09;;;;;;;19.33;15.52;;;;;;;16.88;70.91;101049.63;5020328;28;20457;-78
2023/07/21 06:30:35;;;;;;;19.25;15.40;;;;;;;17.02;70.84;101046.94;5024911;28;20095;-78
2023/07/21 06:33:00;;;;;;;17.02;14.60;;;;;;;17.02;69.47;101043.38;5015739;28;20037;-78
2023/07/21 06:35:25;;;;;;;19.45;14.80;;;;;;;16.98;69.77;101045.41;5024103;28;20048;-78
2023/07/21 06:37:51;;;;;;;18.08;15.43;;;;;;;17.06;70.23;101035.06;5021303;28;20026;-78
2023/07/21 06:40:17;;;;;;;17.70;15.27;;;;;;;17.18;69.78;101036.13;5024768;28;20030;-78
2023/07/21 06:42:44;;;;;;;16.88;14.82;;;;;;;17.37;69.30;101026.91;5025689;28;20084;-79
2023/07/21 06:45:10;;;;;;;18.67;16.13;;;;;;;17.59;69.06;101030.72;5020299;28;20040;-78
2023/07/21 06:47:36;;;;;;;16.35;14.57;;;;;;;17.71;68.14;101022.84;5025792;28;20472;-78
2023/07/21 06:50:01;;;;;;;16.17;14.48;;;;;;;17.90;67.51;101022.47;5024614;28;20021;-78
2023/07/21 06:52:26;;;;;;;18.92;15.30;;;;;;;18.13;67.07;101024.44;5033631;28;20426;-81
2023/07/21 06:54:52;;;;;;;18.38;16.10;;;;;;;18.26;65.37;101032.50;5034021;28;20381;-81
2023/07/21 06:57:18;;;;;;;17.77;15.80;;;;;;;18.41;67.02;101027.88;5030837;28;20120;-81
2023/07/21 06:59:44;;;;;;;18.92;16.45;;;;;;;18.34;66.31;101028.31;5027694;28;20108;-82
2023/07/21 07:02:09;;;;;;;19.73;15.55;;;;;;;18.38;66.21;101026.28;5031317;28;20100;-81
2023/07/21 07:04:34;;;;;;;19.55;14.43;;;;;;;18.38;65.38;101030.78;5023148;28;20457;-82
2023/07/21 07:06:59;;;;;;;20.60;16.33;;;;;;;18.49;65.61;101029.06;5028315;28;20453;-81
2023/07/21 07:09:25;;;;;;;20.80;16.45;;;;;;;18.61;65.27;101028.22;5027199;28;20038;-81
2023/07/21 07:11:51;;;;;;;19.52;16.02;;;;;;;18.73;64.68;101031.00;5023608;28;20036;-82
2023/07/21 07:14:16;;;;;;;18.90;15.57;;;;;;;18.81;64.31;101023.28;5011770;28;20026;-81
2023/07/21 07:16:42;;;;;;;18.38;15.77;;;;;;;18.90;64.62;101022.63;5020988;28;20547;-81
2023/07/21 07:19:07;;;;;;;16.92;14.68;;;;;;;18.99;64.36;101023.78;5016147;28;20092;-82
2023/07/21 07:21:33;;;;;;;21.23;16.05;;;;;;;19.05;63.81;101017.97;5033442;28;20036;-82
2023/07/21 07:23:58;;;;;;;19.73;15.63;;;;;;;19.05;63.51;101020.66;5025311;28;20026;-81
2023/07/21 07:26:23;;;;;;;15.27;13.65;;;;;;;19.14;63.03;101019.13;5027760;28;20032;-82
2023/07/21 07:28:49;;;;;;;18.50;15.38;;;;;;;19.28;61.28;101013.59;5021267;28;20038;-82
2023/07/21 07:31:14;;;;;;;16.58;13.98;;;;;;;19.25;60.73;101012.00;5034490;28;20067;-81
2023/07/21 07:33:40;;;;;;;16.33;14.07;;;;;;;19.45;59.95;101007.84;5039589;28;20032;-82
2023/07/21 07:36:05;;;;;;;15.57;13.50;;;;;;;19.66;59.71;101017.97;5025284;28;20435;-82
2023/07/21 07:38:31;;;;;;;17.25;12.73;;;;;;;19.97;58.66;101024.53;5028464;28;20026;-82
2023/07/21 07:41:09;;;;;;;16.48;13.95;;;;;;;20.21;59.25;101019.97;5030371;28;20084;-82
2023/07/21 07:43:35;;;;;;;14.55;12.80;;;;;;;20.27;59.17;101030.22;5036714;28;20029;-82
2023/07/21 07:46:01;;;;;;;13.80;11.27;;;;;;;20.38;56.82;101024.88;5016375;28;20468;-82
2023/07/21 07:48:26;;;;;;;14.88;12.68;;;;;;;20.35;56.77;101030.47;5036795;28;20160;-81
2023/07/21 07:50:53;;;;;;;16.17;12.07;;;;;;;20.43;56.73;101029.03;5021865;28;20022;-82
2023/07/21 07:53:19;;;;;;;14.27;12.05;;;;;;;20.59;56.21;101034.91;5023322;28;20708;-82
2023/07/21 07:55:45;;;;;;;15.57;12.50;;;;;;;20.66;54.53;101030.78;5025102;28;20033;-82
2023/07/21 07:58:11;;;;;;;17.80;11.93;;;;;;;20.74;55.90;101039.06;5019829;28;20245;-82
2023/07/21 08:00:38;;;;;;;16.13;11.20;;;;;;;20.97;54.35;101036.38;5027912;28;20033;-82
2023/07/21 08:03:05;;;;;;;14.40;11.10;;;;;;;21.20;53.73;101035.38;5014273;28;20030;-82
2023/07/21 08:05:31;;;;;;;14.57;12.50;;;;;;;21.24;53.45;101035.97;5033061;28;20484;-82
2023/07/21 08:08:01;;;;;;;16.17;10.55;;;;;;;21.45;52.55;101034.25;5025081;28;20029;-82
2023/07/21 08:10:28;;;;;;;12.30;10.60;;;;;;;21.46;52.84;101024.34;5018166;28;20076;-82
2023/07/21 08:12:54;;;;;;;11.10;9.90;;;;;;;21.61;52.15;101015.84;5025942;28;20699;-82
2023/07/21 08:15:20;;;;;;;12.20;10.50;;;;;;;21.95;51.96;101020.19;5026068;28;20037;-82
2023/07/21 08:17:45;;;;;;;13.93;9.80;;;;;;;22.13;51.74;101021.34;5033813;28;20029;-82
2023/07/21 08:20:11;;;;;;;12.45;10.10;;;;;;;22.30;51.58;101015.38;5018955;28;20036;-82
2023/07/21 08:22:36;;;;;;;10.80;9.68;;;;;;;22.35;50.10;101017.66;5018230;28;20067;-81
2023/07/21 08:25:01;;;;;;;14.88;9.93;;;;;;;22.65;50.56;101014.13;5015620;28;20036;-81
2023/07/21 08:27:27;;;;;;;10.50;9.38;;;;;;;22.90;48.33;101018.22;5019666;28;20037;-81
2023/07/21 08:29:53;;;;;;;11.50;9.30;;;;;;;23.14;47.63;101015.16;5021543;28;20029;-81
2023/07/21 08:32:19;;;;;;;11.73;9.90;;;;;;;23.20;47.98;101022.69;5017238;28;20045;-81
2023/07/21 08:34:45;;;;;;;11.88;8.95;;;;;;;23.33;49.12;101017.91;5023203;28;20022;-81
2023/07/21 08:37:10;;;;;;;12.32;9.43;;;;;;;23.32;47.23;101018.03;5016998;28;20068;-81
2023/07/21 08:39:36;;;;;;;11.38;9.32;;;;;;;23.35;47.26;101023.16;5034307;28;20072;-81
2023/07/21 08:42:03;;;;;;;11.98;9.50;;;;;;;23.31;48.50;101016.31;5026993;28;20566;-81
2023/07/21 08:44:31;;;;;;;12.98;8.68;;;;;;;23.34;48.61;101029.53;5040388;28;20067;-81
2023/07/21 08:46:56;;;;;;;10.07;8.10;;;;;;;23.38;47.12;101023.72;5019410;28;20029;-81
2023/07/21 08:49:21;;;;;;;8.93;7.70;;;;;;;23.38;46.90;101020.19;5031649;28;20026;-81
2023/07/21 08:51:47;;;;;;;8.95;8.00;;;;;;;23.52;45.48;101027.00;5028008;28;20140;-81
2023/07/21 08:54:13;;;;;;;11.02;7.82;;;;;;;23.88;45.07;101017.38;5020263;28;20104;-81
2023/07/21 08:56:38;;;;;;;11.27;8.30;;;;;;;24.29;44.07;101018.00;5030439;28;20052;-81
2023/07/21 08:59:04;;;;;;;11.32;7.47;;;;;;;24.29;44.32;101013.44;5022822;28;20061;-81
2023/07/21 09:01:29;;;;;;;8.85;7.25;;;;;;;24.25;45.46;101022.00;5024908;28;20018;-81
2023/07/21 09:03:54;;;;;;;10.75;7.53;;;;;;;23.90;44.91;101024.34;5028916;28;20087;-81
2023/07/21 09:06:20;;;;;;;10.85;7.85;;;;;;;23.59;45.28;101026.28;5028670;28;20041;-81
2023/07/21 09:08:47;;;;;;;8.25;7.28;;;;;;;23.37;46.16;101019.31;5021876;28;20025;-81
2023/07/21 09:11:12;;;;;;;10.70;6.95;;;;;;;23.32;46.44;101021.59;5023598;28;20029;-81
2023/07/21 09:13:38;;;;;;;8.20;7.13;;;;;;;23.39;46.80;101021.88;5022187;28;20030;-81
2023/07/21 09:16:07;;;;;;;8.40;7.13;;;;;;;23.96;45.35;101022.06;5038676;28;20029;-84
2023/07/21 09:18:52;;;;;;;8.43;6.50;;;;;;;24.44;45.48;101019.28;5012941;28;20159;-85
2023/07/21 09:21:19;;;;;;;9.07;7.15;;;;;;;24.84;44.27;101021.69;5019672;28;20029;-82
2023/07/21 09:23:46;;;;;;;8.70;6.80;;;;;;;25.11;43.74;101014.59;5018160;28;20060;-81
2023/07/21 09:26:11;;;;;;;8.32;7.10;;;;;;;25.60;41.70;101018.69;5024217;28;20063;-85
2023/07/21 09:28:38;;;;;;;9.02;6.93;;;;;;;26.10;40.94;101012.66;5019021;28;20508;-84
2023/07/21 09:31:04;;;;;;;9.80;8.57;;;;;;;26.39;40.82;101006.09;5020569;28;20028;-81
2023/07/21 09:33:29;;;;;;;10.45;8.05;;;;;;;26.43;40.77;101005.63;5029643;28;20426;-85
2023/07/21 09:36:09;;;;;;;8.00;7.20;;;;;;;26.85;41.51;101010.25;5016156;28;20034;-86
2023/07/21 09:38:35;;;;;;;12.55;8.50;;;;;;;26.33;39.82;101002.16;5023507;28;20075;-87
2023/07/21 09:41:02;;;;;;;11.32;9.07;;;;;;;26.35;40.22;100999.31;5024896;28;20046;-84
2023/07/21 09:43:29;;;;;;;11.35;9.70;;;;;;;26.57;39.51;100997.91;5031735;28;20041;-83
2023/07/21 09:46:00;;;;;;;11.98;10.50;;;;;;;26.69;40.05;100993.91;5015544;28;20105;-81
2023/07/21 09:48:27;;;;;;;13.93;9.98;;;;;;;27.01;41.00;100990.47;5026566;28;20616;-83
2023/07/21 09:50:57;;;;;;;17.17;11.77;;;;;;;26.56;38.28;100993.50;5023779;28;20441;-82
2023/07/21 09:53:32;;;;;;;16.98;11.48;;;;;;;25.88;39.95;100988.78;5029777;28;20030;-82
2023/07/21 09:56:00;;;;;;;12.13;10.82;;;;;;;25.97;40.65;100987.00;5015132;28;20041;-82
2023/07/21 09:58:27;;;;;;;12.63;10.45;;;;;;;26.58;41.02;100976.06;5018065;28;20018;-80
2023/07/21 10:01:03;;;;;;;12.88;11.23;;;;;;;27.24;38.67;100984.47;5021241;28;20037;-83
2023/07/21 10:03:33;;;;;;;13.27;10.70;;;;;;;27.62;38.65;100985.69;5027132;28;20025;-82
2023/07/21 10:06:00;;;;;;;13.90;11.43;;;;;;;27.79;36.86;100984.69;5020882;28;20102;-79
2023/07/21 10:08:27;;;;;;;13.38;10.70;;;;;;;27.59;37.60;100981.44;5025388;28;20022;-81
2023/07/21 10:10:57;;;;;;;13.45;10.80;;;;;;;27.13;38.22;100977.47;5015353;28;20512;-83
2023/07/21 10:13:25;;;;;;;15.27;12.05;;;;;;;26.75;39.22;100989.69;5018878;28;20044;-83
2023/07/21 10:15:51;;;;;;;15.32;12.48;;;;;;;26.33;39.22;100991.31;5023233;28;20091;-83
2023/07/21 10:18:17;;;;;;;12.82;10.05;;;;;;;25.99;39.97;100990.41;5027959;28;20432;-80
2023/07/21 10:20:49;;;;;;;11.40;9.43;;;;;;;25.47;40.08;100993.00;5019471;28;20392;-82
2023/07/21 10:23:23;;;;;;;12.18;10.45;;;;;;;25.14;41.01;100988.09;5034095;28;20029;-81
2023/07/21 10:25:52;;;;;;;15.27;11.18;;;;;;;24.92;40.91;100992.03;5015723;28;20033;-82
2023/07/21 10:28:44;;;;;;;13.73;11.45;;;;;;;24.61;42.49;101001.44;5017602;28;20030;-82
2023/07/21 10:31:21;;;;;;;;;;;;;;;24.50;43.69;100993.53;5022963;28;20028;-80
2023/07/21 10:34:02;;;;;;;12.23;10.93;;;;;;;24.10;46.84;100992.75;5016469;28;20447;-79
2023/07/21 10:36:41;;;;;;;14.27;11.10;;;;;;;23.91;47.09;100990.06;5016601;28;20504;-79
2023/07/21 10:39:10;;;;;;;18.83;13.02;;;;;;;23.43;48.04;101001.72;5037749;28;20032;-79
2023/07/21 10:41:37;;;;;;;13.90;12.30;;;;;;;23.26;47.24;100997.84;5020858;28;20073;-81
2023/07/21 10:44:05;;;;;;;16.45;13.57;;;;;;;22.94;49.08;101005.31;5021638;28;20540;-78
2023/07/21 10:46:44;;;;;;;17.20;14.38;;;;;;;22.75;48.28;101001.53;5020705;28;20507;-77
2023/07/21 10:49:10;;;;;;;21.92;15.90;;;;;;;22.62;49.07;101004.47;5018186;28;20034;-77
2023/07/21 10:51:39;;;;;;;19.95;16.63;;;;;;;22.44;49.50;101003.41;5030965;28;20025;-78
2023/07/21 10:54:05;;;;;;;20.63;16.50;;;;;;;22.53;50.83;101001.75;5016709;28;20505;-77
2023/07/21 10:56:35;;;;;;;18.35;15.05;;;;;;;22.48;49.17;101006.69;5022436;28;20112;-77
2023/07/21 10:59:01;;;;;;;20.23;16.55;;;;;;;22.34;49.94;101000.66;5018163;28;20109;-77
2023/07/21 11:01:26;;;;;;;22.85;16.98;;;;;;;22.22;50.42;101001.72;5023799;28;20120;-77
2023/07/21 11:03:52;;;;;;;19.73;17.63;;;;;;;22.14;51.63;101007.75;5025637;28;20032;-77
2023/07/21 11:06:18;;;;;;;19.08;16.42;;;;;;;21.91;51.29;100998.91;5031361;28;20045;-78
2023/07/21 11:08:44;;;;;;;9.88;8.85;;;;;;;21.70;48.45;101006.13;5021704;28;20041;-77
2023/07/21 11:11:09;;;;;;;7.88;7.05;;;;;;;21.50;50.11;101005.13;5038596;28;20021;-78
2023/07/21 11:13:37;;;;;;;10.07;6.93;;;;;;;21.10;50.17;101024.50;5020278;28;20037;-79
2023/07/21 11:16:02;;;;;;;9.18;8.23;;;;;;;20.94;53.87;101031.25;5019127;28;20032;-78